sensor_id;sensor_type;location;lat;lon;timestamp;P1;P2;P0
64697;PMS5003;51124;53.394;-6.294;2023-04-06T00:00:00;2;2;
64697;PMS5003;51124;53.394;-6.294;2023-04-06T00:02:28;2;2;
64697;PMS5003;51124;53.394;-6.294;2023-04-06T00:04:56;2;2;
64697;PMS5003;51124;53.394;-6.294;2023-04-06T00:07:24;2;2;
64697;PMS5003;51124;53.394;-6.294;2023-04-06T00:09:52;1;1;
64697;PMS5003;51124;53.394;-6.294;2023-04-06T00:12:19;3;3;
64697;PMS5003;51124;53.394;-6.294;2023-04-06T00:14:47;1;1;
64697;PMS5003;51124;53.394;-6.294;2023-04-06T00:17:15;4;2;
64697;PMS5003;51124;53.394;-6.294;2023-04-06T00:19:43;1;1;
64697;PMS5003;51124;53.394;-6.294;2023-04-06T00:22:11;2;2;
64697;PMS5003;51124;53.394;-6.294;2023-04-06T00:24:38;1;1;
64697;PMS5003;51124;53.394;-6.294;2023-04-06T00:27:06;2;2;
64697;PMS5003;51124;53.394;-6.294;2023-04-06T00:29:33;1;1;
64697;PMS5003;51124;53.394;-6.294;2023-04-06T00:32:01;2;2;
64697;PMS5003;51124;53.394;-6.294;2023-04-06T00:34:28;1;1;
64697;PMS5003;51124;53.394;-6.294;2023-04-06T00:36:55;1;1;
64697;PMS5003;51124;53.394;-6.294;2023-04-06T00:39:23;1;1;
64697;PMS5003;51124;53.394;-6.294;2023-04-06T00:41:50;2;2;
64697;PMS5003;51124;53.394;-6.294;2023-04-06T00:44:18;2;2;
64697;PMS5003;51124;53.394;-6.294;2023-04-06T00:46:46;2;2;
64697;PMS5003;51124;53.394;-6.294;2023-04-06T00:49:13;1;1;
64697;PMS5003;51124;53.394;-6.294;2023-04-06T00:51:41;2;2;
64697;PMS5003;51124;53.394;-6.294;2023-04-06T00:54:08;2;2;
64697;PMS5003;51124;53.394;-6.294;2023-04-06T00:56:36;1;1;
64697;PMS5003;51124;53.394;-6.294;2023-04-06T00:59:03;2;2;
64697;PMS5003;51124;53.394;-6.294;2023-04-06T01:01:30;2;2;
64697;PMS5003;51124;53.394;-6.294;2023-04-06T01:03:58;2;2;
64697;PMS5003;51124;53.394;-6.294;2023-04-06T01:06:25;1;1;
64697;PMS5003;51124;53.394;-6.294;2023-04-06T01:08:53;2;2;
64697;PMS5003;51124;53.394;-6.294;2023-04-06T01:11:20;2;2;
64697;PMS5003;51124;53.394;-6.294;2023-04-06T01:13:48;1;1;
64697;PMS5003;51124;53.394;-6.294;2023-04-06T01:16:15;2;2;
64697;PMS5003;51124;53.394;-6.294;2023-04-06T01:18:43;2;2;
64697;PMS5003;51124;53.394;-6.294;2023-04-06T01:21:10;2;2;
64697;PMS5003;51124;53.394;-6.294;2023-04-06T01:23:38;3;2;
64697;PMS5003;51124;53.394;-6.294;2023-04-06T01:26:06;0;0;
64697;PMS5003;51124;53.394;-6.294;2023-04-06T01:28:34;3;3;
64697;PMS5003;51124;53.394;-6.294;2023-04-06T01:31:01;2;2;
64697;PMS5003;51124;53.394;-6.294;2023-04-06T01:33:29;1;1;
64697;PMS5003;51124;53.394;-6.294;2023-04-06T01:35:56;2;2;
64697;PMS5003;51124;53.394;-6.294;2023-04-06T01:38:23;2;2;
64697;PMS5003;51124;53.394;-6.294;2023-04-06T01:40:51;2;2;
64697;PMS5003;51124;53.394;-6.294;2023-04-06T01:43:18;2;2;
64697;PMS5003;51124;53.394;-6.294;2023-04-06T01:45:46;1;1;
64697;PMS5003;51124;53.394;-6.294;2023-04-06T01:48:13;2;2;
64697;PMS5003;51124;53.394;-6.294;2023-04-06T01:50:41;2;2;
64697;PMS5003;51124;53.394;-6.294;2023-04-06T01:53:08;2;2;
64697;PMS5003;51124;53.394;-6.294;2023-04-06T01:55:35;1;1;
64697;PMS5003;51124;53.394;-6.294;2023-04-06T01:58:03;2;2;
64697;PMS5003;51124;53.394;-6.294;2023-04-06T02:00:30;2;2;
64697;PMS5003;51124;53.394;-6.294;2023-04-06T02:02:58;2;2;
64697;PMS5003;51124;53.394;-6.294;2023-04-06T02:05:25;2;2;
64697;PMS5003;51124;53.394;-6.294;2023-04-06T02:07:54;1;1;
64697;PMS5003;51124;53.394;-6.294;2023-04-06T02:10:21;2;2;
64697;PMS5003;51124;53.394;-6.294;2023-04-06T02:12:49;2;2;
64697;PMS5003;51124;53.394;-6.294;2023-04-06T02:15:16;1;1;
64697;PMS5003;51124;53.394;-6.294;2023-04-06T02:17:43;1;1;
64697;PMS5003;51124;53.394;-6.294;2023-04-06T02:20:11;2;2;
64697;PMS5003;51124;53.394;-6.294;2023-04-06T02:22:38;2;2;
64697;PMS5003;51124;53.394;-6.294;2023-04-06T02:25:06;1;1;
64697;PMS5003;51124;53.394;-6.294;2023-04-06T02:27:33;2;2;
64697;PMS5003;51124;53.394;-6.294;2023-04-06T02:30:01;2;2;
64697;PMS5003;51124;53.394;-6.294;2023-04-06T02:32:28;1;1;
64697;PMS5003;51124;53.394;-6.294;2023-04-06T02:34:56;2;2;
64697;PMS5003;51124;53.394;-6.294;2023-04-06T02:37:24;1;1;
64697;PMS5003;51124;53.394;-6.294;2023-04-06T02:39:52;2;2;
64697;PMS5003;51124;53.394;-6.294;2023-04-06T02:42:20;3;3;
64697;PMS5003;51124;53.394;-6.294;2023-04-06T02:44:48;1;1;
64697;PMS5003;51124;53.394;-6.294;2023-04-06T02:47:15;1;1;
64697;PMS5003;51124;53.394;-6.294;2023-04-06T02:49:43;2;2;
64697;PMS5003;51124;53.394;-6.294;2023-04-06T02:52:11;2;2;
64697;PMS5003;51124;53.394;-6.294;2023-04-06T02:54:39;0;0;
64697;PMS5003;51124;53.394;-6.294;2023-04-06T02:57:07;1;1;
64697;PMS5003;51124;53.394;-6.294;2023-04-06T02:59:35;2;2;
64697;PMS5003;51124;53.394;-6.294;2023-04-06T03:02:02;1;1;
64697;PMS5003;51124;53.394;-6.294;2023-04-06T03:04:30;1;1;
64697;PMS5003;51124;53.394;-6.294;2023-04-06T03:06:58;2;2;
64697;PMS5003;51124;53.394;-6.294;2023-04-06T03:09:26;2;2;
64697;PMS5003;51124;53.394;-6.294;2023-04-06T03:11:54;1;1;
64697;PMS5003;51124;53.394;-6.294;2023-04-06T03:14:22;3;1;
64697;PMS5003;51124;53.394;-6.294;2023-04-06T03:16:49;1;1;
64697;PMS5003;51124;53.394;-6.294;2023-04-06T03:19:17;1;1;
64697;PMS5003;51124;53.394;-6.294;2023-04-06T03:21:45;1;1;
64697;PMS5003;51124;53.394;-6.294;2023-04-06T03:24:13;2;2;
64697;PMS5003;51124;53.394;-6.294;2023-04-06T03:26:40;1;1;
64697;PMS5003;51124;53.394;-6.294;2023-04-06T03:29:08;1;1;
64697;PMS5003;51124;53.394;-6.294;2023-04-06T03:31:35;2;2;
64697;PMS5003;51124;53.394;-6.294;2023-04-06T03:34:02;0;0;
64697;PMS5003;51124;53.394;-6.294;2023-04-06T03:36:30;1;1;
64697;PMS5003;51124;53.394;-6.294;2023-04-06T03:38:58;1;1;
64697;PMS5003;51124;53.394;-6.294;2023-04-06T03:41:26;1;1;
64697;PMS5003;51124;53.394;-6.294;2023-04-06T03:43:53;1;1;
64697;PMS5003;51124;53.394;-6.294;2023-04-06T03:46:21;1;1;
64697;PMS5003;51124;53.394;-6.294;2023-04-06T03:48:48;1;1;
64697;PMS5003;51124;53.394;-6.294;2023-04-06T03:51:15;3;1;
64697;PMS5003;51124;53.394;-6.294;2023-04-06T03:53:43;1;1;
64697;PMS5003;51124;53.394;-6.294;2023-04-06T03:56:10;2;2;
64697;PMS5003;51124;53.394;-6.294;2023-04-06T03:58:37;2;2;
64697;PMS5003;51124;53.394;-6.294;2023-04-06T04:01:05;2;2;
64697;PMS5003;51124;53.394;-6.294;2023-04-06T04:03:32;1;1;
64697;PMS5003;51124;53.394;-6.294;2023-04-06T04:05:59;1;1;
64697;PMS5003;51124;53.394;-6.294;2023-04-06T04:08:27;1;1;
64697;PMS5003;51124;53.394;-6.294;2023-04-06T04:10:54;1;1;
64697;PMS5003;51124;53.394;-6.294;2023-04-06T04:13:21;2;1;
64697;PMS5003;51124;53.394;-6.294;2023-04-06T04:15:49;1;1;
64697;PMS5003;51124;53.394;-6.294;2023-04-06T04:18:16;1;1;
64697;PMS5003;51124;53.394;-6.294;2023-04-06T04:20:43;1;1;
64697;PMS5003;51124;53.394;-6.294;2023-04-06T04:23:11;1;1;
64697;PMS5003;51124;53.394;-6.294;2023-04-06T04:25:38;0;0;
64697;PMS5003;51124;53.394;-6.294;2023-04-06T04:28:05;0;0;
64697;PMS5003;51124;53.394;-6.294;2023-04-06T04:30:32;2;2;
64697;PMS5003;51124;53.394;-6.294;2023-04-06T04:33:00;1;1;
64697;PMS5003;51124;53.394;-6.294;2023-04-06T04:35:27;1;1;
64697;PMS5003;51124;53.394;-6.294;2023-04-06T04:37:54;2;2;
64697;PMS5003;51124;53.394;-6.294;2023-04-06T04:40:22;0;0;
64697;PMS5003;51124;53.394;-6.294;2023-04-06T04:42:49;0;0;
64697;PMS5003;51124;53.394;-6.294;2023-04-06T04:45:16;1;1;
64697;PMS5003;51124;53.394;-6.294;2023-04-06T04:47:44;2;2;
64697;PMS5003;51124;53.394;-6.294;2023-04-06T04:50:11;1;1;
64697;PMS5003;51124;53.394;-6.294;2023-04-06T04:52:38;0;0;
64697;PMS5003;51124;53.394;-6.294;2023-04-06T04:55:06;1;1;
64697;PMS5003;51124;53.394;-6.294;2023-04-06T04:57:33;1;1;
64697;PMS5003;51124;53.394;-6.294;2023-04-06T05:00:01;1;1;
64697;PMS5003;51124;53.394;-6.294;2023-04-06T05:02:28;1;1;
64697;PMS5003;51124;53.394;-6.294;2023-04-06T05:04:56;1;1;
64697;PMS5003;51124;53.394;-6.294;2023-04-06T05:07:23;1;1;
64697;PMS5003;51124;53.394;-6.294;2023-04-06T05:09:50;1;1;
64697;PMS5003;51124;53.394;-6.294;2023-04-06T05:12:18;1;1;
64697;PMS5003;51124;53.394;-6.294;2023-04-06T05:14:45;1;1;
64697;PMS5003;51124;53.394;-6.294;2023-04-06T05:17:13;0;0;
64697;PMS5003;51124;53.394;-6.294;2023-04-06T05:19:40;0;0;
64697;PMS5003;51124;53.394;-6.294;2023-04-06T05:22:07;2;2;
64697;PMS5003;51124;53.394;-6.294;2023-04-06T05:24:35;0;0;
64697;PMS5003;51124;53.394;-6.294;2023-04-06T05:27:02;1;1;
64697;PMS5003;51124;53.394;-6.294;2023-04-06T05:29:30;2;2;
64697;PMS5003;51124;53.394;-6.294;2023-04-06T05:31:58;3;2;
64697;PMS5003;51124;53.394;-6.294;2023-04-06T05:34:25;1;1;
64697;PMS5003;51124;53.394;-6.294;2023-04-06T05:36:53;1;1;
64697;PMS5003;51124;53.394;-6.294;2023-04-06T05:39:21;1;1;
64697;PMS5003;51124;53.394;-6.294;2023-04-06T05:41:49;1;1;
64697;PMS5003;51124;53.394;-6.294;2023-04-06T05:44:17;0;0;
64697;PMS5003;51124;53.394;-6.294;2023-04-06T05:46:44;1;1;
64697;PMS5003;51124;53.394;-6.294;2023-04-06T05:49:12;0;0;
64697;PMS5003;51124;53.394;-6.294;2023-04-06T05:51:40;2;2;
64697;PMS5003;51124;53.394;-6.294;2023-04-06T05:54:08;1;1;
64697;PMS5003;51124;53.394;-6.294;2023-04-06T05:56:35;2;1;
64697;PMS5003;51124;53.394;-6.294;2023-04-06T05:59:03;1;1;
64697;PMS5003;51124;53.394;-6.294;2023-04-06T06:01:32;1;1;
64697;PMS5003;51124;53.394;-6.294;2023-04-06T06:04:00;1;1;
64697;PMS5003;51124;53.394;-6.294;2023-04-06T06:06:28;1;1;
64697;PMS5003;51124;53.394;-6.294;2023-04-06T06:08:55;0;0;
64697;PMS5003;51124;53.394;-6.294;2023-04-06T06:11:23;1;1;
64697;PMS5003;51124;53.394;-6.294;2023-04-06T06:13:51;1;1;
64697;PMS5003;51124;53.394;-6.294;2023-04-06T06:16:19;1;1;
64697;PMS5003;51124;53.394;-6.294;2023-04-06T06:18:47;1;1;
64697;PMS5003;51124;53.394;-6.294;2023-04-06T06:21:15;1;1;
64697;PMS5003;51124;53.394;-6.294;2023-04-06T06:23:43;1;1;
64697;PMS5003;51124;53.394;-6.294;2023-04-06T06:26:10;2;2;
64697;PMS5003;51124;53.394;-6.294;2023-04-06T06:28:38;2;1;
64697;PMS5003;51124;53.394;-6.294;2023-04-06T06:31:06;0;0;
64697;PMS5003;51124;53.394;-6.294;2023-04-06T06:33:33;1;1;
64697;PMS5003;51124;53.394;-6.294;2023-04-06T06:36:00;1;1;
64697;PMS5003;51124;53.394;-6.294;2023-04-06T06:38:28;0;0;
64697;PMS5003;51124;53.394;-6.294;2023-04-06T06:40:55;1;1;
64697;PMS5003;51124;53.394;-6.294;2023-04-06T06:43:22;1;1;
64697;PMS5003;51124;53.394;-6.294;2023-04-06T06:45:50;1;1;
64697;PMS5003;51124;53.394;-6.294;2023-04-06T06:48:17;1;1;
64697;PMS5003;51124;53.394;-6.294;2023-04-06T06:50:44;0;0;
64697;PMS5003;51124;53.394;-6.294;2023-04-06T06:53:14;0;0;
64697;PMS5003;51124;53.394;-6.294;2023-04-06T06:55:41;0;0;
64697;PMS5003;51124;53.394;-6.294;2023-04-06T06:58:08;2;2;
64697;PMS5003;51124;53.394;-6.294;2023-04-06T07:00:36;0;0;
64697;PMS5003;51124;53.394;-6.294;2023-04-06T07:03:03;2;1;
64697;PMS5003;51124;53.394;-6.294;2023-04-06T07:05:31;0;0;
64697;PMS5003;51124;53.394;-6.294;2023-04-06T07:07:58;1;1;
64697;PMS5003;51124;53.394;-6.294;2023-04-06T07:10:26;0;0;
64697;PMS5003;51124;53.394;-6.294;2023-04-06T07:12:53;1;1;
64697;PMS5003;51124;53.394;-6.294;2023-04-06T07:15:21;1;1;
64697;PMS5003;51124;53.394;-6.294;2023-04-06T07:17:48;1;1;
64697;PMS5003;51124;53.394;-6.294;2023-04-06T07:20:16;1;1;
64697;PMS5003;51124;53.394;-6.294;2023-04-06T07:22:43;1;1;
64697;PMS5003;51124;53.394;-6.294;2023-04-06T07:25:10;0;0;
64697;PMS5003;51124;53.394;-6.294;2023-04-06T07:27:58;1;1;
64697;PMS5003;51124;53.394;-6.294;2023-04-06T07:30:26;0;0;
64697;PMS5003;51124;53.394;-6.294;2023-04-06T07:33:01;0;0;
64697;PMS5003;51124;53.394;-6.294;2023-04-06T07:35:28;0;0;
64697;PMS5003;51124;53.394;-6.294;2023-04-06T07:37:56;1;1;
64697;PMS5003;51124;53.394;-6.294;2023-04-06T07:40:23;0;0;
64697;PMS5003;51124;53.394;-6.294;2023-04-06T07:42:51;0;0;
64697;PMS5003;51124;53.394;-6.294;2023-04-06T07:45:18;1;1;
64697;PMS5003;51124;53.394;-6.294;2023-04-06T07:47:45;1;1;
64697;PMS5003;51124;53.394;-6.294;2023-04-06T07:50:13;0;0;
64697;PMS5003;51124;53.394;-6.294;2023-04-06T07:52:40;1;1;
64697;PMS5003;51124;53.394;-6.294;2023-04-06T07:55:08;0;0;
64697;PMS5003;51124;53.394;-6.294;2023-04-06T07:57:35;0;0;
64697;PMS5003;51124;53.394;-6.294;2023-04-06T08:00:03;0;0;
64697;PMS5003;51124;53.394;-6.294;2023-04-06T08:02:31;0;0;
64697;PMS5003;51124;53.394;-6.294;2023-04-06T08:04:58;0;0;
64697;PMS5003;51124;53.394;-6.294;2023-04-06T08:07:26;1;1;
64697;PMS5003;51124;53.394;-6.294;2023-04-06T08:09:53;1;1;
64697;PMS5003;51124;53.394;-6.294;2023-04-06T08:12:21;0;0;
64697;PMS5003;51124;53.394;-6.294;2023-04-06T08:14:48;0;0;
64697;PMS5003;51124;53.394;-6.294;2023-04-06T08:17:16;0;0;
64697;PMS5003;51124;53.394;-6.294;2023-04-06T08:19:44;1;1;
64697;PMS5003;51124;53.394;-6.294;2023-04-06T08:22:11;1;1;
64697;PMS5003;51124;53.394;-6.294;2023-04-06T08:24:39;1;1;
64697;PMS5003;51124;53.394;-6.294;2023-04-06T08:27:06;0;0;
64697;PMS5003;51124;53.394;-6.294;2023-04-06T08:29:33;0;0;
64697;PMS5003;51124;53.394;-6.294;2023-04-06T08:32:01;0;0;
64697;PMS5003;51124;53.394;-6.294;2023-04-06T08:34:28;1;1;
64697;PMS5003;51124;53.394;-6.294;2023-04-06T08:36:57;0;0;
64697;PMS5003;51124;53.394;-6.294;2023-04-06T08:39:24;0;0;
64697;PMS5003;51124;53.394;-6.294;2023-04-06T08:41:52;1;1;
64697;PMS5003;51124;53.394;-6.294;2023-04-06T08:44:20;1;1;
64697;PMS5003;51124;53.394;-6.294;2023-04-06T08:46:48;2;1;
64697;PMS5003;51124;53.394;-6.294;2023-04-06T08:49:16;1;1;
64697;PMS5003;51124;53.394;-6.294;2023-04-06T08:51:44;1;1;
64697;PMS5003;51124;53.394;-6.294;2023-04-06T08:54:12;2;1;
64697;PMS5003;51124;53.394;-6.294;2023-04-06T08:56:41;1;1;
64697;PMS5003;51124;53.394;-6.294;2023-04-06T08:59:10;1;1;
64697;PMS5003;51124;53.394;-6.294;2023-04-06T09:01:39;1;1;
64697;PMS5003;51124;53.394;-6.294;2023-04-06T09:04:08;1;1;
64697;PMS5003;51124;53.394;-6.294;2023-04-06T09:06:37;0;0;
64697;PMS5003;51124;53.394;-6.294;2023-04-06T09:09:05;1;1;
64697;PMS5003;51124;53.394;-6.294;2023-04-06T09:11:42;1;1;
64697;PMS5003;51124;53.394;-6.294;2023-04-06T09:14:00;1;1;
64697;PMS5003;51124;53.394;-6.294;2023-04-06T09:16:38;0;0;
64697;PMS5003;51124;53.394;-6.294;2023-04-06T09:19:03;3;1;
64697;PMS5003;51124;53.394;-6.294;2023-04-06T09:21:31;2;2;
64697;PMS5003;51124;53.394;-6.294;2023-04-06T09:23:59;1;1;
64697;PMS5003;51124;53.394;-6.294;2023-04-06T09:26:28;1;1;
64697;PMS5003;51124;53.394;-6.294;2023-04-06T09:28:56;0;0;
64697;PMS5003;51124;53.394;-6.294;2023-04-06T09:31:25;1;1;
64697;PMS5003;51124;53.394;-6.294;2023-04-06T09:33:56;0;0;
64697;PMS5003;51124;53.394;-6.294;2023-04-06T09:36:29;1;1;
64697;PMS5003;51124;53.394;-6.294;2023-04-06T09:38:58;1;1;
64697;PMS5003;51124;53.394;-6.294;2023-04-06T09:41:27;1;1;
64697;PMS5003;51124;53.394;-6.294;2023-04-06T09:44:03;0;0;
64697;PMS5003;51124;53.394;-6.294;2023-04-06T09:46:22;1;1;
64697;PMS5003;51124;53.394;-6.294;2023-04-06T09:48:50;1;1;
64697;PMS5003;51124;53.394;-6.294;2023-04-06T09:51:18;0;0;
64697;PMS5003;51124;53.394;-6.294;2023-04-06T09:53:46;1;1;
64697;PMS5003;51124;53.394;-6.294;2023-04-06T09:56:17;1;1;
64697;PMS5003;51124;53.394;-6.294;2023-04-06T09:58:49;0;0;
64697;PMS5003;51124;53.394;-6.294;2023-04-06T10:01:21;2;0;
64697;PMS5003;51124;53.394;-6.294;2023-04-06T10:03:52;1;1;
64697;PMS5003;51124;53.394;-6.294;2023-04-06T10:06:18;0;0;
64697;PMS5003;51124;53.394;-6.294;2023-04-06T10:08:56;0;0;
64697;PMS5003;51124;53.394;-6.294;2023-04-06T10:11:24;1;1;
64697;PMS5003;51124;53.394;-6.294;2023-04-06T10:13:52;0;0;
64697;PMS5003;51124;53.394;-6.294;2023-04-06T10:16:20;0;0;
64697;PMS5003;51124;53.394;-6.294;2023-04-06T10:18:49;1;1;
64697;PMS5003;51124;53.394;-6.294;2023-04-06T10:21:23;1;1;
64697;PMS5003;51124;53.394;-6.294;2023-04-06T10:23:53;1;1;
64697;PMS5003;51124;53.394;-6.294;2023-04-06T10:26:23;1;1;
64697;PMS5003;51124;53.394;-6.294;2023-04-06T10:28:51;0;0;
64697;PMS5003;51124;53.394;-6.294;2023-04-06T10:31:23;0;0;
64697;PMS5003;51124;53.394;-6.294;2023-04-06T10:33:53;1;1;
64697;PMS5003;51124;53.394;-6.294;2023-04-06T10:36:22;0;0;
64697;PMS5003;51124;53.394;-6.294;2023-04-06T10:38:53;0;0;
64697;PMS5003;51124;53.394;-6.294;2023-04-06T10:41:21;1;1;
64697;PMS5003;51124;53.394;-6.294;2023-04-06T10:43:56;1;1;
64697;PMS5003;51124;53.394;-6.294;2023-04-06T10:46:25;1;1;
64697;PMS5003;51124;53.394;-6.294;2023-04-06T10:48:54;1;1;
64697;PMS5003;51124;53.394;-6.294;2023-04-06T10:51:24;1;0;
64697;PMS5003;51124;53.394;-6.294;2023-04-06T10:53:53;0;0;
64697;PMS5003;51124;53.394;-6.294;2023-04-06T10:56:22;1;1;
64697;PMS5003;51124;53.394;-6.294;2023-04-06T10:58:51;1;1;
64697;PMS5003;51124;53.394;-6.294;2023-04-06T11:01:20;1;1;
64697;PMS5003;51124;53.394;-6.294;2023-04-06T11:03:48;2;1;
64697;PMS5003;51124;53.394;-6.294;2023-04-06T11:06:18;2;2;
64697;PMS5003;51124;53.394;-6.294;2023-04-06T11:08:46;1;1;
64697;PMS5003;51124;53.394;-6.294;2023-04-06T11:11:15;0;0;
64697;PMS5003;51124;53.394;-6.294;2023-04-06T11:13:44;1;1;
64697;PMS5003;51124;53.394;-6.294;2023-04-06T11:16:14;0;0;
64697;PMS5003;51124;53.394;-6.294;2023-04-06T11:18:51;0;0;
64697;PMS5003;51124;53.394;-6.294;2023-04-06T11:21:10;0;0;
64697;PMS5003;51124;53.394;-6.294;2023-04-06T11:23:37;1;1;
64697;PMS5003;51124;53.394;-6.294;2023-04-06T11:26:09;0;0;
64697;PMS5003;51124;53.394;-6.294;2023-04-06T11:28:47;0;0;
64697;PMS5003;51124;53.394;-6.294;2023-04-06T11:31:05;2;2;
64697;PMS5003;51124;53.394;-6.294;2023-04-06T11:33:35;1;1;
64697;PMS5003;51124;53.394;-6.294;2023-04-06T11:36:02;1;1;
64697;PMS5003;51124;53.394;-6.294;2023-04-06T11:38:31;2;2;
64697;PMS5003;51124;53.394;-6.294;2023-04-06T11:40:59;1;1;
64697;PMS5003;51124;53.394;-6.294;2023-04-06T11:43:28;2;2;
64697;PMS5003;51124;53.394;-6.294;2023-04-06T11:45:59;1;1;
64697;PMS5003;51124;53.394;-6.294;2023-04-06T11:48:28;2;2;
64697;PMS5003;51124;53.394;-6.294;2023-04-06T11:50:56;1;1;
64697;PMS5003;51124;53.394;-6.294;2023-04-06T11:53:24;1;1;
64697;PMS5003;51124;53.394;-6.294;2023-04-06T11:55:52;1;1;
64697;PMS5003;51124;53.394;-6.294;2023-04-06T11:58:20;1;1;
64697;PMS5003;51124;53.394;-6.294;2023-04-06T12:00:48;4;1;
64697;PMS5003;51124;53.394;-6.294;2023-04-06T12:03:17;1;1;
64697;PMS5003;51124;53.394;-6.294;2023-04-06T12:05:44;2;1;
64697;PMS5003;51124;53.394;-6.294;2023-04-06T12:08:12;1;1;
64697;PMS5003;51124;53.394;-6.294;2023-04-06T12:10:40;1;1;
64697;PMS5003;51124;53.394;-6.294;2023-04-06T12:13:08;0;0;
64697;PMS5003;51124;53.394;-6.294;2023-04-06T12:15:36;1;1;
64697;PMS5003;51124;53.394;-6.294;2023-04-06T12:18:03;1;1;
64697;PMS5003;51124;53.394;-6.294;2023-04-06T12:20:31;1;1;
64697;PMS5003;51124;53.394;-6.294;2023-04-06T12:22:59;0;0;
64697;PMS5003;51124;53.394;-6.294;2023-04-06T12:25:27;1;1;
64697;PMS5003;51124;53.394;-6.294;2023-04-06T12:27:55;1;1;
64697;PMS5003;51124;53.394;-6.294;2023-04-06T12:30:23;1;1;
64697;PMS5003;51124;53.394;-6.294;2023-04-06T12:32:51;2;2;
64697;PMS5003;51124;53.394;-6.294;2023-04-06T12:35:18;1;1;
64697;PMS5003;51124;53.394;-6.294;2023-04-06T12:37:46;1;1;
64697;PMS5003;51124;53.394;-6.294;2023-04-06T12:40:14;1;1;
64697;PMS5003;51124;53.394;-6.294;2023-04-06T12:42:42;0;0;
64697;PMS5003;51124;53.394;-6.294;2023-04-06T12:45:10;0;0;
64697;PMS5003;51124;53.394;-6.294;2023-04-06T12:47:38;2;0;
64697;PMS5003;51124;53.394;-6.294;2023-04-06T12:50:06;1;1;
64697;PMS5003;51124;53.394;-6.294;2023-04-06T12:52:34;0;0;
64697;PMS5003;51124;53.394;-6.294;2023-04-06T12:55:02;1;1;
64697;PMS5003;51124;53.394;-6.294;2023-04-06T12:57:30;1;1;
64697;PMS5003;51124;53.394;-6.294;2023-04-06T12:59:59;1;1;
64697;PMS5003;51124;53.394;-6.294;2023-04-06T13:02:30;2;1;
64697;PMS5003;51124;53.394;-6.294;2023-04-06T13:04:58;0;0;
64697;PMS5003;51124;53.394;-6.294;2023-04-06T13:07:25;1;1;
64697;PMS5003;51124;53.394;-6.294;2023-04-06T13:09:52;1;1;
64697;PMS5003;51124;53.394;-6.294;2023-04-06T13:12:20;0;0;
64697;PMS5003;51124;53.394;-6.294;2023-04-06T13:14:47;0;0;
64697;PMS5003;51124;53.394;-6.294;2023-04-06T13:17:15;0;0;
64697;PMS5003;51124;53.394;-6.294;2023-04-06T13:19:42;1;1;
64697;PMS5003;51124;53.394;-6.294;2023-04-06T13:22:09;3;3;
64697;PMS5003;51124;53.394;-6.294;2023-04-06T13:24:37;3;3;
64697;PMS5003;51124;53.394;-6.294;2023-04-06T13:27:04;2;2;
64697;PMS5003;51124;53.394;-6.294;2023-04-06T13:29:32;2;2;
64697;PMS5003;51124;53.394;-6.294;2023-04-06T13:31:59;2;2;
64697;PMS5003;51124;53.394;-6.294;2023-04-06T13:34:26;2;2;
64697;PMS5003;51124;53.394;-6.294;2023-04-06T13:36:54;2;2;
64697;PMS5003;51124;53.394;-6.294;2023-04-06T13:39:21;1;1;
64697;PMS5003;51124;53.394;-6.294;2023-04-06T13:41:48;2;2;
64697;PMS5003;51124;53.394;-6.294;2023-04-06T13:44:18;1;1;
64697;PMS5003;51124;53.394;-6.294;2023-04-06T13:46:45;1;1;
64697;PMS5003;51124;53.394;-6.294;2023-04-06T13:49:13;2;2;
64697;PMS5003;51124;53.394;-6.294;2023-04-06T13:51:40;1;1;
64697;PMS5003;51124;53.394;-6.294;2023-04-06T13:54:07;2;2;
64697;PMS5003;51124;53.394;-6.294;2023-04-06T13:56:35;1;1;
64697;PMS5003;51124;53.394;-6.294;2023-04-06T13:59:02;1;1;
64697;PMS5003;51124;53.394;-6.294;2023-04-06T14:01:30;0;0;
64697;PMS5003;51124;53.394;-6.294;2023-04-06T14:03:57;4;2;
64697;PMS5003;51124;53.394;-6.294;2023-04-06T14:06:25;1;1;
64697;PMS5003;51124;53.394;-6.294;2023-04-06T14:08:52;2;2;
64697;PMS5003;51124;53.394;-6.294;2023-04-06T14:11:20;2;2;
64697;PMS5003;51124;53.394;-6.294;2023-04-06T14:13:48;1;1;
64697;PMS5003;51124;53.394;-6.294;2023-04-06T14:16:15;1;1;
64697;PMS5003;51124;53.394;-6.294;2023-04-06T14:18:42;1;1;
64697;PMS5003;51124;53.394;-6.294;2023-04-06T14:21:10;1;1;
64697;PMS5003;51124;53.394;-6.294;2023-04-06T14:23:37;2;2;
64697;PMS5003;51124;53.394;-6.294;2023-04-06T14:26:05;1;1;
64697;PMS5003;51124;53.394;-6.294;2023-04-06T14:28:33;1;1;
64697;PMS5003;51124;53.394;-6.294;2023-04-06T14:31:01;0;0;
64697;PMS5003;51124;53.394;-6.294;2023-04-06T14:33:34;3;3;
64697;PMS5003;51124;53.394;-6.294;2023-04-06T14:36:02;2;1;
64697;PMS5003;51124;53.394;-6.294;2023-04-06T14:38:30;2;2;
64697;PMS5003;51124;53.394;-6.294;2023-04-06T14:40:58;2;2;
64697;PMS5003;51124;53.394;-6.294;2023-04-06T14:43:25;2;2;
64697;PMS5003;51124;53.394;-6.294;2023-04-06T14:46:00;2;2;
64697;PMS5003;51124;53.394;-6.294;2023-04-06T14:48:27;3;2;
64697;PMS5003;51124;53.394;-6.294;2023-04-06T14:50:55;0;0;
64697;PMS5003;51124;53.394;-6.294;2023-04-06T14:53:22;1;1;
64697;PMS5003;51124;53.394;-6.294;2023-04-06T14:55:50;2;2;
64697;PMS5003;51124;53.394;-6.294;2023-04-06T14:58:17;2;2;
64697;PMS5003;51124;53.394;-6.294;2023-04-06T15:00:45;2;2;
64697;PMS5003;51124;53.394;-6.294;2023-04-06T15:03:12;2;1;
64697;PMS5003;51124;53.394;-6.294;2023-04-06T15:05:40;3;2;
64697;PMS5003;51124;53.394;-6.294;2023-04-06T15:08:08;13;10;
64697;PMS5003;51124;53.394;-6.294;2023-04-06T15:10:35;10;10;
64697;PMS5003;51124;53.394;-6.294;2023-04-06T15:13:03;12;10;
64697;PMS5003;51124;53.394;-6.294;2023-04-06T15:15:31;13;10;
64697;PMS5003;51124;53.394;-6.294;2023-04-06T15:17:58;9;8;
64697;PMS5003;51124;53.394;-6.294;2023-04-06T15:20:26;6;6;
64697;PMS5003;51124;53.394;-6.294;2023-04-06T15:22:54;9;8;
64697;PMS5003;51124;53.394;-6.294;2023-04-06T15:25:22;7;6;
64697;PMS5003;51124;53.394;-6.294;2023-04-06T15:27:50;9;7;
64697;PMS5003;51124;53.394;-6.294;2023-04-06T15:30:19;8;8;
64697;PMS5003;51124;53.394;-6.294;2023-04-06T15:32:51;8;8;
64697;PMS5003;51124;53.394;-6.294;2023-04-06T15:35:20;9;7;
64697;PMS5003;51124;53.394;-6.294;2023-04-06T15:37:49;7;7;
64697;PMS5003;51124;53.394;-6.294;2023-04-06T15:40:17;7;7;
64697;PMS5003;51124;53.394;-6.294;2023-04-06T15:42:45;7;7;
64697;PMS5003;51124;53.394;-6.294;2023-04-06T15:45:13;9;7;
64697;PMS5003;51124;53.394;-6.294;2023-04-06T15:47:41;5;5;
64697;PMS5003;51124;53.394;-6.294;2023-04-06T15:50:10;8;5;
64697;PMS5003;51124;53.394;-6.294;2023-04-06T15:52:38;8;8;
64697;PMS5003;51124;53.394;-6.294;2023-04-06T15:55:10;6;6;
64697;PMS5003;51124;53.394;-6.294;2023-04-06T15:57:38;6;6;
64697;PMS5003;51124;53.394;-6.294;2023-04-06T16:00:07;4;4;
64697;PMS5003;51124;53.394;-6.294;2023-04-06T16:02:35;7;7;
64697;PMS5003;51124;53.394;-6.294;2023-04-06T16:05:03;6;6;
64697;PMS5003;51124;53.394;-6.294;2023-04-06T16:07:31;4;4;
64697;PMS5003;51124;53.394;-6.294;2023-04-06T16:09:59;7;5;
64697;PMS5003;51124;53.394;-6.294;2023-04-06T16:12:26;10;10;
64697;PMS5003;51124;53.394;-6.294;2023-04-06T16:14:54;10;8;
64697;PMS5003;51124;53.394;-6.294;2023-04-06T16:17:22;8;8;
64697;PMS5003;51124;53.394;-6.294;2023-04-06T16:19:49;7;6;
64697;PMS5003;51124;53.394;-6.294;2023-04-06T16:22:17;3;3;
64697;PMS5003;51124;53.394;-6.294;2023-04-06T16:24:44;2;2;
64697;PMS5003;51124;53.394;-6.294;2023-04-06T16:27:11;6;4;
64697;PMS5003;51124;53.394;-6.294;2023-04-06T16:29:39;5;4;
64697;PMS5003;51124;53.394;-6.294;2023-04-06T16:32:06;4;3;
64697;PMS5003;51124;53.394;-6.294;2023-04-06T16:34:34;4;4;
64697;PMS5003;51124;53.394;-6.294;2023-04-06T16:37:01;3;3;